Time;durP1;ratioP1;P1;durP2;ratioP2;P2;SDS_P1;SDS_P2;PMS_P1;PMS_P2;Temp;Humidity;BMP_temperature;BMP_pressure;BME280_temperature;BME280_humidity;BME280_pressure;Samples;Min_cycle;Max_cycle;Signal;HPM_P1;HPM_P2
2021/04/16 00:01:24;;;;;;;4.27;2.67;;;8.00;99.90;;;;;;5093014;28;20209;-77
2021/04/16 00:03:52;;;;;;;3.87;2.57;;;7.90;99.90;;;;;;5093801;28;20213;-75
2021/04/16 00:06:18;;;;;;;2.70;2.30;;;7.80;99.90;;;;;;5093547;28;20205;-76
2021/04/16 00:08:46;;;;;;;3.03;2.53;;;7.90;99.90;;;;;;5092486;28;20202;-76
2021/04/16 00:11:15;;;;;;;4.43;3.23;;;7.90;99.90;;;;;;5093199;28;20213;-76
2021/04/16 00:13:42;;;;;;;3.03;2.50;;;7.80;99.90;;;;;;5092707;28;20217;-74
2021/04/16 00:16:11;;;;;;;2.60;2.40;;;7.80;99.90;;;;;;5092972;28;20201;-76
2021/04/16 00:18:38;;;;;;;3.47;2.87;;;7.80;99.90;;;;;;5092479;28;20201;-75
2021/04/16 00:21:05;;;;;;;2.33;2.03;;;7.80;99.90;;;;;;5093327;28;20201;-77
2021/04/16 00:23:32;;;;;;;3.30;2.23;;;7.80;99.90;;;;;;5092546;28;20202;-76
2021/04/16 00:25:59;;;;;;;3.40;2.87;;;7.70;99.90;;;;;;5092922;28;20202;-77
2021/04/16 00:28:26;;;;;;;2.63;2.10;;;7.70;99.90;;;;;;5092339;28;20565;-76
2021/04/16 00:30:55;;;;;;;2.80;2.60;;;7.60;99.90;;;;;;5092416;28;20210;-77
2021/04/16 00:33:22;;;;;;;3.33;3.00;;;7.60;99.90;;;;;;5092555;28;20592;-72
2021/04/16 00:35:49;;;;;;;4.10;2.77;;;7.50;99.90;;;;;;5092574;28;20625;-77
2021/04/16 00:38:17;;;;;;;3.80;3.20;;;7.50;99.90;;;;;;5092811;28;20202;-76
2021/04/16 00:40:46;;;;;;;4.13;3.60;;;7.50;99.90;;;;;;5092011;28;20237;-76
2021/04/16 00:43:14;;;;;;;3.73;3.10;;;7.40;99.90;;;;;;5092400;28;20242;-76
2021/04/16 00:45:41;;;;;;;3.20;2.70;;;7.40;99.90;;;;;;5092080;28;20201;-74
2021/04/16 00:48:15;;;;;;;3.07;2.77;;;7.30;99.90;;;;;;5092157;28;20251;-75
2021/04/16 00:50:47;;;;;;;3.47;2.97;;;7.30;99.90;;;;;;5092131;28;20209;-75
2021/04/16 00:53:15;;;;;;;3.83;2.93;;;7.30;99.90;;;;;;5092147;28;20217;-77
2021/04/16 00:55:43;;;;;;;3.03;2.73;;;7.20;99.90;;;;;;5091924;28;20217;-75
2021/04/16 00:58:10;;;;;;;5.00;2.67;;;7.20;99.90;;;;;;5092211;28;20209;-76
2021/04/16 01:00:37;;;;;;;2.97;2.70;;;7.20;99.90;;;;;;5092025;28;20225;-76
2021/04/16 01:03:04;;;;;;;3.60;3.30;;;7.20;99.90;;;;;;5092163;28;20594;-77
2021/04/16 01:05:31;;;;;;;3.03;2.60;;;7.10;99.90;;;;;;5090974;28;20560;-74
2021/04/16 01:07:58;;;;;;;5.20;3.90;;;7.10;99.90;;;;;;5092246;28;20231;-75
2021/04/16 01:10:24;;;;;;;3.47;2.87;;;7.00;99.90;;;;;;5091370;28;20274;-74
2021/04/16 01:12:53;;;;;;;2.83;2.43;;;7.00;99.90;;;;;;5092156;28;20590;-76
2021/04/16 01:15:28;;;;;;;3.77;3.40;;;7.00;99.90;;;;;;5091969;28;20213;-75
2021/04/16 01:17:57;;;;;;;3.77;3.07;;;6.90;99.90;;;;;;5092067;28;20205;-75
2021/04/16 01:20:26;;;;;;;5.90;3.17;;;7.00;99.90;;;;;;5091700;28;20278;-72
2021/04/16 01:22:59;;;;;;;4.07;3.13;;;6.90;99.90;;;;;;5091824;28;20206;-71
2021/04/16 01:25:27;;;;;;;5.20;2.73;;;6.90;99.90;;;;;;5090811;28;20205;-72
2021/04/16 01:27:53;;;;;;;3.90;3.10;;;6.80;99.90;;;;;;5091647;28;20623;-76
2021/04/16 01:30:23;;;;;;;4.23;3.40;;;6.80;99.90;;;;;;5091511;28;20680;-74
2021/04/16 01:32:52;;;;;;;2.50;2.30;;;6.70;99.90;;;;;;5092043;28;20212;-74
2021/04/16 01:35:23;;;;;;;3.63;3.00;;;6.80;99.90;;;;;;5091758;28;20668;-75
2021/04/16 01:37:49;;;;;;;5.30;3.37;;;6.70;99.90;;;;;;5091313;28;20559;-73
2021/04/16 01:40:20;;;;;;;5.23;2.73;;;6.60;99.90;;;;;;5091130;28;20579;-74
2021/04/16 01:42:47;;;;;;;2.80;2.47;;;6.60;99.90;;;;;;5091570;28;20210;-73
2021/04/16 01:45:22;;;;;;;3.33;2.87;;;6.70;99.90;;;;;;5084190;28;20627;-74
2021/04/16 01:47:54;;;;;;;4.80;3.00;;;6.70;99.90;;;;;;5085625;28;20212;-74
2021/04/16 01:50:20;;;;;;;4.23;2.50;;;6.40;99.90;;;;;;5091502;28;20590;-74
2021/04/16 01:52:48;;;;;;;3.73;3.33;;;6.30;99.90;;;;;;5091188;28;20213;-75
2021/04/16 01:55:14;;;;;;;2.93;2.73;;;6.20;99.90;;;;;;5091118;28;20206;-74
2021/04/16 01:57:41;;;;;;;5.63;4.47;;;6.00;99.90;;;;;;5090999;28;20201;-75
2021/04/16 02:00:13;;;;;;;3.63;2.97;;;5.80;99.90;;;;;;5088030;28;20232;-75
2021/04/16 02:02:40;;;;;;;5.10;3.30;;;5.80;99.90;;;;;;5069242;28;20705;-75
2021/04/16 02:05:08;;;;;;;7.90;3.87;;;5.60;99.90;;;;;;5070504;28;20202;-76
2021/04/16 02:07:35;;;;;;;3.27;2.97;;;5.50;99.90;;;;;;5070201;28;20720;-75
2021/04/16 02:10:01;;;;;;;4.50;3.03;;;5.40;99.90;;;;;;5070826;28;20210;-74
2021/04/16 02:12:27;;;;;;;2.90;2.70;;;5.40;99.90;;;;;;5070394;28;20279;-74
2021/04/16 02:14:55;;;;;;;3.33;2.27;;;5.40;99.90;;;;;;5070877;28;20202;-74
2021/04/16 02:17:26;;;;;;;3.90;2.37;;;5.30;99.90;;;;;;5070736;28;20202;-75
2021/04/16 02:19:53;;;;;;;3.90;2.40;;;5.30;99.90;;;;;;5070447;28;20226;-73
2021/04/16 02:22:21;;;;;;;4.47;2.90;;;5.20;99.90;;;;;;5070716;28;20217;-75
2021/04/16 02:24:48;;;;;;;4.77;2.83;;;5.30;99.90;;;;;;5070118;28;20735;-75
2021/04/16 02:27:16;;;;;;;5.50;3.50;;;5.30;99.90;;;;;;5070488;28;20673;-74
2021/04/16 02:29:42;;;;;;;4.70;2.53;;;5.30;99.90;;;;;;5069832;28;20251;-74
2021/04/16 02:32:10;;;;;;;4.60;3.27;;;5.20;99.90;;;;;;5070429;28;20263;-74
2021/04/16 02:34:38;;;;;;;6.50;3.70;;;5.20;99.90;;;;;;5069919;28;20271;-73
2021/04/16 02:37:09;;;;;;;3.20;2.80;;;5.20;99.90;;;;;;5070222;28;20296;-73
2021/04/16 02:39:36;;;;;;;4.37;3.97;;;5.30;99.90;;;;;;5070820;28;20279;-73
2021/04/16 02:42:03;;;;;;;5.43;3.30;;;5.30;99.90;;;;;;5067643;28;20210;-74
2021/04/16 02:44:30;;;;;;;4.17;3.00;;;5.30;99.90;;;;;;5070130;28;20214;-74
2021/04/16 02:46:56;;;;;;;4.73;3.27;;;5.30;99.90;;;;;;5069629;28;20213;-73
2021/04/16 02:49:24;;;;;;;4.67;3.03;;;5.20;99.90;;;;;;5070354;28;20205;-73
2021/04/16 02:51:52;;;;;;;3.13;2.80;;;5.30;99.90;;;;;;5069105;28;20582;-73
2021/04/16 02:54:19;;;;;;;3.27;2.83;;;5.30;99.90;;;;;;5070083;28;20206;-73
2021/04/16 02:56:47;;;;;;;4.60;3.10;;;5.30;99.90;;;;;;5069625;28;20206;-73
2021/04/16 02:59:14;;;;;;;5.33;3.20;;;5.30;99.90;;;;;;5070032;28;20577;-73
2021/04/16 03:01:40;;;;;;;4.63;3.37;;;5.30;99.90;;;;;;5069683;28;20622;-73
2021/04/16 03:04:07;;;;;;;3.40;3.10;;;5.20;99.90;;;;;;5069866;28;20790;-74
2021/04/16 03:06:33;;;;;;;5.47;3.10;;;5.20;99.90;;;;;;5069663;28;20212;-74
2021/04/16 03:09:03;;;;;;;4.27;2.70;;;5.20;99.90;;;;;;5069757;28;20210;-75
2021/04/16 03:11:30;;;;;;;5.83;3.50;;;5.10;99.90;;;;;;5069931;28;20608;-74
2021/04/16 03:13:57;;;;;;;5.80;3.70;;;5.10;99.90;;;;;;5070101;28;20206;-74
2021/04/16 03:16:26;;;;;;;3.87;3.13;;;5.10;99.90;;;;;;5069905;28;20206;-72
2021/04/16 03:18:53;;;;;;;3.47;3.00;;;5.10;99.90;;;;;;5069821;28;20670;-72
2021/04/16 03:21:20;;;;;;;4.70;3.30;;;5.00;99.90;;;;;;5069761;28;20692;-75
2021/04/16 03:23:46;;;;;;;3.03;2.77;;;4.90;99.90;;;;;;5069655;28;20206;-74
2021/04/16 03:26:13;;;;;;;2.83;2.53;;;5.00;99.90;;;;;;5069775;28;20662;-72
2021/04/16 03:28:40;;;;;;;3.40;3.10;;;5.00;99.90;;;;;;5069810;28;20233;-72
2021/04/16 03:31:06;;;;;;;3.97;2.70;;;4.90;99.90;;;;;;5073692;28;20218;-72
2021/04/16 03:33:34;;;;;;;3.53;3.00;;;4.90;99.90;;;;;;5066434;28;20237;-72
2021/04/16 03:36:01;;;;;;;4.57;3.30;;;4.90;99.90;;;;;;5072840;28;20241;-72
2021/04/16 03:38:29;;;;;;;4.47;3.23;;;4.90;99.90;;;;;;5073334;28;20213;-73
2021/04/16 03:40:55;;;;;;;3.83;3.20;;;4.80;99.90;;;;;;5073056;28;20237;-73
2021/04/16 03:43:23;;;;;;;5.70;3.97;;;4.70;99.90;;;;;;5073464;28;20284;-72
2021/04/16 03:45:49;;;;;;;4.77;3.40;;;4.70;99.90;;;;;;5073993;28;20584;-73
2021/04/16 03:48:16;;;;;;;4.97;3.40;;;4.70;99.90;;;;;;5073062;28;20211;-72
2021/04/16 03:50:48;;;;;;;4.00;3.40;;;4.60;99.90;;;;;;5072932;28;20263;-73
2021/04/16 03:53:15;;;;;;;3.30;2.80;;;4.60;99.90;;;;;;5072841;28;20669;-74
2021/04/16 03:55:41;;;;;;;4.13;3.10;;;4.60;99.90;;;;;;5073188;28;20232;-73
2021/04/16 03:58:11;;;;;;;2.87;2.67;;;4.60;99.90;;;;;;5073369;28;20217;-73
2021/04/16 04:00:40;;;;;;;4.40;3.13;;;4.60;99.90;;;;;;5072958;28;20229;-73
2021/04/16 04:03:07;;;;;;;3.37;2.60;;;4.60;99.90;;;;;;5073096;28;20229;-74
2021/04/16 04:05:34;;;;;;;5.80;3.20;;;4.60;99.90;;;;;;5071319;28;20199;-75
2021/04/16 04:08:01;;;;;;;8.97;4.70;;;4.60;99.90;;;;;;5072059;28;20222;-75
2021/04/16 04:10:34;;;;;;;4.00;3.20;;;4.60;99.90;;;;;;5072381;28;20283;-75
2021/04/16 04:13:01;;;;;;;5.20;4.03;;;4.60;99.90;;;;;;5073091;28;20288;-76
2021/04/16 04:15:27;;;;;;;5.03;3.60;;;4.60;99.90;;;;;;5072720;28;20206;-75
2021/04/16 04:17:55;;;;;;;3.47;3.07;;;4.80;99.90;;;;;;5072400;28;20232;-75
2021/04/16 04:20:25;;;;;;;4.37;3.27;;;4.80;99.90;;;;;;5072611;28;20244;-75
2021/04/16 04:22:51;;;;;;;4.73;3.97;;;4.70;99.90;;;;;;5072703;28;20723;-72
2021/04/16 04:25:19;;;;;;;7.37;3.73;;;4.60;99.90;;;;;;5073035;28;20701;-76
2021/04/16 04:27:47;;;;;;;3.37;3.00;;;4.60;99.90;;;;;;5072194;28;20743;-75
2021/04/16 04:30:14;;;;;;;8.97;3.23;;;4.60;99.90;;;;;;5072555;28;20582;-75
2021/04/16 04:32:41;;;;;;;3.97;3.10;;;4.80;99.90;;;;;;5071900;28;20203;-75
2021/04/16 04:35:10;;;;;;;3.90;3.30;;;4.90;99.90;;;;;;5072795;28;20255;-76
2021/04/16 04:37:36;;;;;;;5.63;3.40;;;4.80;99.90;;;;;;5072384;28;20209;-75
2021/04/16 04:40:04;;;;;;;4.93;3.83;;;4.80;99.90;;;;;;5072094;28;20226;-75
2021/04/16 04:42:30;;;;;;;4.43;3.60;;;4.80;99.90;;;;;;5071291;28;20206;-75
2021/04/16 04:44:57;;;;;;;4.07;3.37;;;4.80;99.90;;;;;;5072248;28;20205;-75
2021/04/16 04:47:23;;;;;;;7.10;3.57;;;4.60;99.90;;;;;;5071805;28;20222;-73
2021/04/16 04:49:50;;;;;;;4.23;3.20;;;4.40;99.90;;;;;;5072303;28;20716;-75
2021/04/16 04:52:20;;;;;;;4.13;3.83;;;4.20;99.90;;;;;;5072616;28;20206;-76
2021/04/16 04:54:49;;;;;;;5.60;3.27;;;4.20;99.90;;;;;;5071322;28;20218;-76
2021/04/16 04:57:16;;;;;;;4.70;3.60;;;4.10;99.90;;;;;;5072375;28;20232;-75
2021/04/16 04:59:44;;;;;;;4.43;3.23;;;4.10;99.90;;;;;;5071453;28;20226;-76
2021/04/16 05:02:10;;;;;;;4.03;3.47;;;4.20;99.90;;;;;;5057515;28;20256;-76
2021/04/16 05:04:37;;;;;;;4.70;3.40;;;4.10;99.90;;;;;;5071790;28;20210;-76
2021/04/16 05:07:03;;;;;;;9.97;4.33;;;4.00;99.90;;;;;;5071878;28;20202;-75
2021/04/16 05:09:31;;;;;;;4.57;4.17;;;4.10;99.90;;;;;;5071187;28;20685;-75
2021/04/16 05:11:58;;;;;;;4.37;3.87;;;4.10;99.90;;;;;;5071637;28;20584;-75
2021/04/16 05:14:24;;;;;;;4.50;3.97;;;4.00;99.90;;;;;;5071207;28;20202;-73
2021/04/16 05:16:51;;;;;;;4.93;4.23;;;3.90;99.90;;;;;;5071932;28;20210;-75
2021/04/16 05:19:18;;;;;;;4.63;3.67;;;3.80;99.90;;;;;;5071798;28;20197;-74
2021/04/16 05:21:44;;;;;;;5.43;4.50;;;4.00;99.90;;;;;;5071478;28;20217;-74
2021/04/16 05:24:12;;;;;;;3.90;3.47;;;3.80;99.90;;;;;;5071517;28;20206;-74
2021/04/16 05:26:40;;;;;;;4.80;3.83;;;3.80;99.90;;;;;;5071203;28;20202;-74
2021/04/16 05:29:07;;;;;;;8.83;3.80;;;3.90;99.90;;;;;;5071522;28;20221;-74
2021/04/16 05:31:34;;;;;;;6.67;4.07;;;3.80;99.90;;;;;;5070746;28;20665;-74
2021/04/16 05:34:01;;;;;;;6.30;4.10;;;3.80;99.90;;;;;;5071277;28;20670;-75
2021/04/16 05:36:28;;;;;;;8.33;6.33;;;3.90;99.90;;;;;;5070838;28;20589;-75
2021/04/16 05:38:54;;;;;;;4.93;4.30;;;4.00;99.90;;;;;;5071271;28;20205;-75
2021/04/16 05:41:21;;;;;;;5.00;3.87;;;4.00;99.90;;;;;;5071374;28;20233;-74
2021/04/16 05:43:49;;;;;;;4.77;4.20;;;3.90;99.90;;;;;;5070992;28;20202;-75
2021/04/16 05:46:15;;;;;;;7.40;4.13;;;3.90;99.90;;;;;;5070677;28;20206;-75
2021/04/16 05:48:42;;;;;;;5.57;3.93;;;3.90;99.90;;;;;;5070690;28;20573;-75
2021/04/16 05:51:09;;;;;;;7.83;3.80;;;3.90;99.90;;;;;;5071006;28;20692;-75
2021/04/16 05:53:36;;;;;;;5.63;3.30;;;3.90;99.90;;;;;;5070184;28;20209;-76
2021/04/16 05:56:03;;;;;;;4.07;3.20;;;4.00;99.90;;;;;;5070974;28;20209;-75
2021/04/16 05:58:30;;;;;;;7.33;3.60;;;4.00;99.90;;;;;;5070492;28;20216;-75
2021/04/16 06:00:57;;;;;;;11.70;3.33;;;4.10;99.90;;;;;;5070811;28;20229;-74
2021/04/16 06:03:23;;;;;;;4.40;3.83;;;4.20;99.90;;;;;;5070192;28;20243;-74
2021/04/16 06:05:50;;;;;;;11.87;4.03;;;4.20;99.90;;;;;;5071331;28;20206;-74
2021/04/16 06:08:19;;;;;;;3.70;2.77;;;4.10;99.90;;;;;;5069876;28;20240;-73
2021/04/16 06:10:47;;;;;;;5.13;3.30;;;4.10;99.90;;;;;;5064233;28;20737;-81
2021/04/16 06:13:13;;;;;;;4.70;3.60;;;4.50;99.90;;;;;;5057383;28;20297;-73
2021/04/16 06:15:40;;;;;;;4.70;3.27;;;4.30;99.90;;;;;;5066078;28;20209;-75
2021/04/16 06:18:07;;;;;;;4.47;3.30;;;4.50;99.90;;;;;;5070557;28;20255;-74
2021/04/16 06:20:33;;;;;;;5.67;3.30;;;4.40;99.90;;;;;;5070233;28;20234;-75
2021/04/16 06:23:00;;;;;;;3.77;3.33;;;4.40;99.90;;;;;;5065867;28;20206;-75
2021/04/16 06:25:30;;;;;;;3.93;3.20;;;4.40;99.90;;;;;;5069973;28;20210;-74
2021/04/16 06:27:58;;;;;;;4.87;3.40;;;4.40;99.90;;;;;;5070015;28;20229;-74
2021/04/16 06:30:25;;;;;;;6.37;3.73;;;4.60;99.90;;;;;;5066215;28;20207;-75
2021/04/16 06:33:14;;;;;;;4.93;3.40;;;4.70;99.90;;;;;;5069218;28;20214;-74
2021/04/16 06:35:46;;;;;;;4.90;3.13;;;4.80;99.90;;;;;;5070151;28;20198;-75
2021/04/16 06:38:13;;;;;;;5.27;3.70;;;4.80;99.90;;;;;;5062029;28;20236;-73
2021/04/16 06:40:41;;;;;;;5.60;3.47;;;4.80;99.90;;;;;;5068790;28;20229;-73
2021/04/16 06:43:08;;;;;;;3.87;3.30;;;4.90;99.90;;;;;;5060114;28;20684;-82
2021/04/16 06:45:34;;;;;;;4.17;3.17;;;5.00;99.90;;;;;;5069333;28;20672;-76
2021/04/16 06:48:03;;;;;;;3.37;3.00;;;5.00;99.90;;;;;;5069880;28;20218;-77
2021/04/16 06:50:33;;;;;;;3.80;3.50;;;5.10;99.90;;;;;;5069517;28;20213;-75
2021/04/16 06:53:06;;;;;;;9.07;4.00;;;5.20;99.90;;;;;;5060921;28;20453;-78
2021/04/16 06:55:37;;;;;;;4.40;4.00;;;5.40;99.90;;;;;;5058974;28;20221;-79
2021/04/16 06:58:08;;;;;;;5.93;3.90;;;5.50;99.90;;;;;;5058868;28;20201;-76
2021/04/16 07:00:41;;;;;;;5.37;4.80;;;5.50;99.90;;;;;;5063926;28;20237;-76
2021/04/16 07:03:14;;;;;;;4.37;3.53;;;5.50;99.90;;;;;;5069951;28;20202;-74
2021/04/16 07:05:46;;;;;;;7.03;4.13;;;5.60;99.90;;;;;;5063848;28;20201;-73
2021/04/16 07:08:22;;;;;;;6.00;4.20;;;5.70;99.90;;;;;;5069898;28;20206;-73
2021/04/16 07:10:54;;;;;;;7.33;3.97;;;5.60;99.90;;;;;;5059374;28;20265;-73
2021/04/16 07:13:31;;;;;;;3.57;3.27;;;5.60;99.90;;;;;;5073817;28;20202;-77
2021/04/16 07:15:57;;;;;;;6.63;4.60;;;5.70;99.90;;;;;;5073663;28;20209;-77
2021/04/16 07:18:30;;;;;;;4.50;4.10;;;6.00;99.90;;;;;;5069378;28;20289;-78
2021/04/16 07:20:57;;;;;;;9.63;4.10;;;6.00;99.90;;;;;;5069146;28;20226;-77
2021/04/16 07:23:25;;;;;;;7.97;3.83;;;6.10;99.90;;;;;;5065506;28;20209;-81
2021/04/16 07:26:08;;;;;;;5.27;3.87;;;6.20;99.90;;;;;;5064163;28;20686;-82
2021/04/16 07:28:47;;;;;;;4.80;3.70;;;6.20;99.90;;;;;;5066454;28;20853;-81
2021/04/16 07:31:47;;;;;;;6.40;4.13;;;6.40;99.90;;;;;;5067692;28;20685;-81
2021/04/16 07:34:33;;;;;;;3.93;3.53;;;6.50;99.90;;;;;;5055608;28;20218;-78
2021/04/16 07:37:12;;;;;;;3.97;3.57;;;6.60;99.90;;;;;;5063906;28;20202;-80
2021/04/16 07:39:47;;;;;;;8.07;4.30;;;7.10;99.90;;;;;;5066363;28;20265;-80
2021/04/16 07:42:24;;;;;;;4.57;3.30;;;6.60;99.90;;;;;;5064295;28;20210;-81
2021/04/16 07:45:00;;;;;;;4.83;3.83;;;6.90;99.90;;;;;;5066186;28;20572;-77
2021/04/16 07:47:29;;;;;;;5.73;4.27;;;6.90;99.90;;;;;;5070804;28;20213;-78
2021/04/16 07:49:59;;;;;;;5.40;3.33;;;7.20;99.90;;;;;;5070754;28;20293;-80
2021/04/16 07:52:31;;;;;;;6.10;4.23;;;7.40;99.90;;;;;;5070322;28;20220;-78
2021/04/16 07:55:23;;;;;;;6.70;4.10;;;7.40;99.90;;;;;;5061976;28;20284;-80
2021/04/16 07:58:06;;;;;;;7.40;4.80;;;7.40;99.90;;;;;;5057414;28;20253;-82
2021/04/16 08:00:36;;;;;;;6.07;4.33;;;7.30;99.90;;;;;;5066614;28;20225;-78
2021/04/16 08:03:07;;;;;;;4.33;3.83;;;7.50;99.90;;;;;;5072978;28;20210;-83
2021/04/16 08:05:37;;;;;;;6.13;3.97;;;7.70;99.90;;;;;;5069738;28;20669;-74
2021/04/16 08:08:13;;;;;;;6.87;4.60;;;7.90;99.90;;;;;;5072950;28;20570;-73
2021/04/16 08:10:40;;;;;;;5.07;4.57;;;8.10;99.90;;;;;;5071958;28;20205;-73
2021/04/16 08:13:10;;;;;;;6.27;4.70;;;8.20;99.90;;;;;;5072691;28;20206;-74
2021/04/16 08:15:38;;;;;;;6.63;4.97;;;8.30;99.90;;;;;;5072051;28;20236;-76
2021/04/16 08:18:11;;;;;;;7.63;4.70;;;8.50;99.90;;;;;;5068822;28;20210;-76
2021/04/16 08:20:44;;;;;;;7.77;4.33;;;8.50;99.90;;;;;;5071969;28;20236;-78
2021/04/16 08:23:15;;;;;;;9.57;4.30;;;8.70;99.90;;;;;;5072450;28;20213;-81
2021/04/16 08:25:45;;;;;;;6.63;4.70;;;8.90;99.90;;;;;;5072111;28;20210;-79
2021/04/16 08:28:18;;;;;;;7.40;4.97;;;8.80;99.90;;;;;;5072249;28;20264;-79
2021/04/16 08:30:52;;;;;;;16.53;5.70;;;9.10;99.90;;;;;;5072068;28;20214;-79
2021/04/16 08:33:26;;;;;;;9.00;5.43;;;9.80;99.90;;;;;;5056159;28;20210;-79
2021/04/16 08:36:00;;;;;;;5.43;4.17;;;11.30;99.90;;;;;;5069644;28;20234;-77
2021/04/16 08:38:32;;;;;;;8.27;4.77;;;11.70;99.90;;;;;;5070859;28;20206;-76
2021/04/16 08:41:01;;;;;;;8.60;4.60;;;12.10;99.90;;;;;;5068379;28;20223;-75
2021/04/16 08:43:33;;;;;;;6.47;4.63;;;10.40;99.90;;;;;;5071850;28;20202;-78
2021/04/16 08:46:04;;;;;;;5.17;4.40;;;10.40;99.90;;;;;;5067630;28;20771;-77
2021/04/16 08:48:36;;;;;;;7.03;3.90;;;10.30;99.90;;;;;;5071445;28;20601;-75
2021/04/16 08:51:06;;;;;;;7.47;4.57;;;10.00;99.90;;;;;;5072148;28;20214;-75
2021/04/16 08:53:33;;;;;;;5.23;4.03;;;10.40;99.90;;;;;;5070475;28;20198;-75
2021/04/16 08:56:14;;;;;;;4.03;3.63;;;10.50;99.90;;;;;;5072099;28;20213;-76
2021/04/16 08:58:41;;;;;;;9.57;5.00;;;10.60;99.90;;;;;;5070974;28;20202;-75
2021/04/16 09:01:13;;;;;;;8.30;5.17;;;10.70;99.90;;;;;;5071838;28;20237;-75
2021/04/16 09:03:43;;;;;;;7.77;3.80;;;10.80;99.90;;;;;;5071331;28;20209;-75
2021/04/16 09:06:22;;;;;;;5.40;4.70;;;10.60;99.90;;;;;;5071702;28;20206;-73
2021/04/16 09:08:50;;;;;;;6.40;4.93;;;10.70;99.90;;;;;;5071998;28;20321;-74
2021/04/16 09:11:51;;;;;;;6.57;4.70;;;11.00;99.90;;;;;;5072032;28;20209;-74
2021/04/16 09:14:52;;;;;;;6.10;4.20;;;11.60;99.90;;;;;;5071408;28;20210;-73
2021/04/16 09:17:19;;;;;;;7.63;5.13;;;11.40;99.90;;;;;;5070451;28;20294;-76
2021/04/16 09:20:09;;;;;;;6.80;5.07;;;11.60;99.90;;;;;;5071241;28;20198;-75
2021/04/16 09:22:44;;;;;;;5.97;5.00;;;11.50;99.90;;;;;;5070746;28;20198;-74
2021/04/16 09:25:37;;;;;;;5.00;4.50;;;11.90;99.90;;;;;;5071653;28;20213;-74
2021/04/16 09:28:43;;;;;;;5.10;4.60;;;11.90;99.90;;;;;;5067441;28;20202;-76
2021/04/16 09:31:43;;;;;;;6.45;4.72;;;11.70;99.90;;;;;;5068134;28;20295;-75
2021/04/16 09:34:19;;;;;;;6.35;4.95;;;12.20;99.90;;;;;;5068037;28;20210;-73
2021/04/16 09:36:49;;;;;;;7.30;5.38;;;12.70;99.90;;;;;;5070625;28;20289;-74
2021/04/16 09:39:31;;;;;;;5.20;4.00;;;13.20;99.90;;;;;;5064221;28;20249;-74
2021/04/16 09:41:59;;;;;;;6.43;4.95;;;16.90;99.90;;;;;;5067932;28;20208;-73
2021/04/16 09:44:45;;;;;;;6.13;4.10;;;17.70;99.90;;;;;;5069160;28;20678;-75
2021/04/16 09:47:13;;;;;;;5.80;4.72;;;17.60;99.90;;;;;;5067346;28;20218;-77
2021/04/16 09:49:55;;;;;;;7.20;4.53;;;20.80;99.90;;;;;;5066087;28;20198;-74
2021/04/16 09:52:45;;;;;;;6.20;4.70;;;21.90;99.90;;;;;;5070769;28;20661;-72
2021/04/16 09:55:44;;;;;;;5.93;4.78;;;20.00;99.90;;;;;;5069412;28;20302;-75
2021/04/16 09:58:12;;;;;;;8.60;5.22;;;19.30;99.90;;;;;;5065023;28;20598;-84
2021/04/16 10:01:02;;;;;;;7.50;4.75;;;21.20;99.80;;;;;;5061005;28;20264;-77
2021/04/16 10:03:44;;;;;;;6.50;4.90;;;20.90;99.40;;;;;;5067087;28;20206;-77
2021/04/16 10:06:45;;;;;;;6.57;4.88;;;19.10;99.80;;;;;;5064358;28;20231;-77
2021/04/16 10:09:27;;;;;;;6.53;5.00;;;19.30;99.50;;;;;;5028432;28;20305;-77
2021/04/16 10:11:56;;;;;;;5.80;5.20;;;19.90;99.90;;;;;;5055219;28;20209;-78
2021/04/16 10:14:30;;;;;;;5.97;5.13;;;21.10;99.80;;;;;;5063091;28;20198;-74
2021/04/16 10:16:59;;;;;;;5.45;4.95;;;20.70;98.60;;;;;;5060802;28;20666;-75
2021/04/16 10:19:29;;;;;;;5.60;5.10;;;21.10;98.70;;;;;;5060078;28;20214;-73
2021/04/16 10:21:56;;;;;;;6.88;5.13;;;21.80;99.00;;;;;;5062970;28;20622;-73
2021/04/16 12:38:31;;;;;;;3.63;2.67;;;13.90;95.50;;;;;;5072506;28;20712;-78
2021/04/16 12:40:58;;;;;;;2.90;2.20;;;13.90;95.70;;;;;;5072370;28;20233;-74
2021/04/16 12:43:26;;;;;;;3.73;2.33;;;14.00;95.80;;;;;;5071800;28;20569;-72
2021/04/16 12:45:55;;;;;;;4.50;2.70;;;14.30;95.30;;;;;;5072311;28;20203;-73
2021/04/16 12:48:22;;;;;;;4.20;2.50;;;14.50;95.60;;;;;;5071884;28;20210;-78
2021/04/16 12:50:49;;;;;;;5.43;2.20;;;13.80;94.30;;;;;;5071952;28;20238;-73
2021/04/16 12:53:15;;;;;;;2.97;2.60;;;13.50;94.70;;;;;;5072230;28;20202;-74
2021/04/16 12:55:42;;;;;;;4.03;2.53;;;13.70;94.90;;;;;;5072131;28;20206;-77
2021/04/16 12:58:10;;;;;;;4.83;2.57;;;14.00;95.50;;;;;;5072159;28;20232;-74
2021/04/16 13:00:41;;;;;;;4.25;2.40;;;14.50;95.20;;;;;;5071737;28;20272;-78
2021/04/16 13:03:12;;;;;;;4.18;3.10;;;14.50;94.30;;;;;;5070964;28;20275;-76
2021/04/16 13:05:38;;;;;;;3.28;2.05;;;14.40;95.00;;;;;;5071716;28;20233;-72
2021/04/16 13:08:06;;;;;;;3.70;2.67;;;14.70;94.70;;;;;;5071971;28;20259;-75
2021/04/16 13:10:33;;;;;;;2.92;2.67;;;14.70;95.30;;;;;;5071168;28;20206;-74
2021/04/16 13:13:00;;;;;;;6.53;3.13;;;14.60;95.00;;;;;;5071987;28;20248;-76
2021/04/16 13:15:26;;;;;;;3.85;2.72;;;14.70;95.20;;;;;;5071293;28;20202;-73
2021/04/16 13:17:57;;;;;;;8.63;6.05;;;14.60;94.70;;;;;;5071722;28;20209;-74
2021/04/16 13:20:26;;;;;;;4.45;2.63;;;14.80;94.90;;;;;;5071551;28;20279;-75
2021/04/16 13:22:53;;;;;;;9.27;6.63;;;14.70;94.50;;;;;;5071512;28;20202;-74
2021/04/16 13:25:21;;;;;;;3.33;3.03;;;14.70;94.40;;;;;;5072006;28;20213;-74
2021/04/16 13:27:50;;;;;;;6.15;3.83;;;14.60;94.30;;;;;;5071477;28;20252;-74
2021/04/16 13:30:19;;;;;;;4.38;3.13;;;14.90;95.60;;;;;;5071305;28;20263;-76
2021/04/16 13:32:48;;;;;;;9.18;3.95;;;15.00;94.60;;;;;;5070808;28;20248;-74
2021/04/16 13:35:19;;;;;;;4.78;3.42;;;15.10;95.20;;;;;;5071687;28;20202;-74
2021/04/16 13:37:46;;;;;;;5.80;3.03;;;15.90;95.40;;;;;;5070898;28;20210;-74
2021/04/16 13:40:13;;;;;;;3.92;2.42;;;15.70;94.70;;;;;;5071233;28;20230;-75
2021/04/16 13:42:40;;;;;;;6.47;3.08;;;16.10;94.70;;;;;;5071125;28;20210;-77
2021/04/16 13:45:08;;;;;;;2.85;2.53;;;15.30;93.80;;;;;;5070708;28;20202;-74
2021/04/16 13:47:41;;;;;;;6.07;2.67;;;15.10;93.80;;;;;;5070908;28;20693;-76
2021/04/16 13:50:10;;;;;;;8.43;3.10;;;15.00;93.50;;;;;;5071662;28;20214;-75
2021/04/16 13:52:37;;;;;;;5.10;2.90;;;14.70;93.80;;;;;;5070979;28;20243;-73
2021/04/16 13:55:05;;;;;;;5.50;2.58;;;15.20;94.00;;;;;;5071007;28;20210;-75
2021/04/16 13:57:31;;;;;;;2.85;2.50;;;15.30;94.00;;;;;;5070477;28;20206;-73
2021/04/16 13:59:58;;;;;;;3.13;2.55;;;15.50;94.30;;;;;;5069056;28;20207;-78
2021/04/16 14:02:27;;;;;;;2.88;2.50;;;15.20;94.30;;;;;;5063479;28;20209;-74
2021/04/16 14:04:54;;;;;;;3.17;2.83;;;15.30;94.20;;;;;;5064664;28;20616;-74
2021/04/16 14:07:22;;;;;;;3.53;2.20;;;15.60;93.70;;;;;;5070015;28;20206;-74
2021/04/16 14:09:50;;;;;;;3.05;2.72;;;15.70;93.40;;;;;;5071173;28;20206;-77
2021/04/16 14:12:16;;;;;;;2.25;2.05;;;15.80;93.20;;;;;;5060110;28;20218;-75
2021/04/16 14:14:46;;;;;;;4.68;2.35;;;16.20;93.80;;;;;;5061020;28;20232;-73
2021/04/16 14:17:15;;;;;;;2.85;2.50;;;16.30;93.30;;;;;;5060343;28;20264;-75
2021/04/16 14:19:47;;;;;;;3.55;2.30;;;16.20;93.40;;;;;;5061479;28;20644;-73
2021/04/16 14:22:16;;;;;;;6.20;2.47;;;16.00;93.80;;;;;;5063797;28;20276;-75
2021/04/16 14:24:42;;;;;;;2.80;2.35;;;15.90;93.20;;;;;;5059955;28;20232;-74
2021/04/16 14:27:10;;;;;;;5.88;2.10;;;15.80;94.10;;;;;;5070188;28;20681;-74
2021/04/16 14:29:37;;;;;;;2.88;2.50;;;15.70;93.30;;;;;;5069416;28;20206;-74
2021/04/16 14:32:04;;;;;;;3.05;2.10;;;15.30;93.70;;;;;;5068715;28;20669;-75
2021/04/16 14:34:33;;;;;;;2.72;2.25;;;15.40;93.50;;;;;;5065985;28;20217;-73
2021/04/16 14:36:59;;;;;;;3.22;2.20;;;15.10;94.20;;;;;;5069541;28;20578;-71
2021/04/16 14:39:27;;;;;;;2.33;1.60;;;14.30;93.60;;;;;;5069635;28;20229;-74
2021/04/16 14:41:56;;;;;;;2.40;2.20;;;14.80;94.20;;;;;;5057166;28;20230;-73
2021/04/16 14:44:24;;;;;;;2.33;2.13;;;14.90;94.40;;;;;;5067709;28;20207;-74
2021/04/16 14:46:53;;;;;;;2.75;2.22;;;15.10;94.50;;;;;;5064400;28;20621;-77
2021/04/16 14:49:21;;;;;;;4.30;2.55;;;15.60;93.80;;;;;;5061701;28;20198;-73
2021/04/16 14:51:48;;;;;;;3.92;1.73;;;15.10;93.60;;;;;;5069108;28;20206;-71
2021/04/16 14:54:23;;;;;;;9.18;2.53;;;14.20;93.50;;;;;;5070172;28;20213;-75
2021/04/16 14:56:50;;;;;;;1.83;1.70;;;14.20;93.80;;;;;;5059700;28;20212;-74
2021/04/16 14:59:23;;;;;;;3.80;2.50;;;14.00;94.00;;;;;;5070518;28;20212;-72
2021/04/16 15:01:51;;;;;;;2.30;2.10;;;13.70;94.10;;;;;;5070021;28;20276;-74
2021/04/16 15:04:19;;;;;;;5.20;2.10;;;13.50;94.70;;;;;;5070218;28;20206;-77
2021/04/16 15:06:46;;;;;;;5.47;2.20;;;13.60;94.50;;;;;;5065896;28;20207;-76
2021/04/16 15:09:15;;;;;;;2.13;1.92;;;14.20;93.50;;;;;;5060662;28;20206;-75
2021/04/16 15:11:45;;;;;;;3.22;1.80;;;14.50;93.40;;;;;;5062462;28;20237;-73
2021/04/16 15:14:15;;;;;;;3.00;1.98;;;14.10;92.90;;;;;;5062376;28;20721;-73
2021/04/16 15:16:43;;;;;;;2.30;1.92;;;14.20;92.80;;;;;;5068510;28;20249;-75
2021/04/16 15:19:13;;;;;;;1.95;1.60;;;14.40;92.90;;;;;;5065671;28;20210;-75
2021/04/16 15:21:39;;;;;;;2.65;1.60;;;14.50;91.50;;;;;;5069388;28;20234;-77